createdAt,value
2018-08-23T16:52:40.410Z,57.52
2018-08-23T16:55:44.442Z,58.48
2018-08-23T16:58:59.539Z,57.80
2018-08-23T17:02:03.749Z,58.67
2018-08-23T17:05:08.237Z,57.71
2018-08-23T17:08:12.224Z,57.45
2018-08-23T17:11:16.388Z,58.32
2018-08-23T17:14:20.377Z,57.65
2018-08-23T17:17:27.794Z,57.54
2018-08-23T17:20:31.758Z,57.80
2018-08-23T17:23:35.801Z,58.45
2018-08-23T17:26:41.762Z,57.99
2018-08-23T17:29:45.846Z,58.24
2018-08-23T17:32:49.932Z,58.16
2018-08-23T17:35:54.005Z,58.13
2018-08-23T17:38:58.004Z,58.95
2018-08-23T17:42:04.599Z,58.89
2018-08-23T17:45:08.736Z,58.44
2018-08-23T17:48:12.890Z,58.51
2018-08-23T17:51:16.913Z,58.71
2018-08-23T17:54:20.875Z,59.70
2018-08-23T17:57:28.238Z,59.60
2018-08-23T18:00:32.224Z,59.63
2018-08-23T18:03:36.204Z,60.00
2018-08-23T18:06:40.234Z,60.11
2018-08-23T18:09:44.459Z,60.35
2018-08-23T18:12:52.144Z,59.56
2018-08-23T18:16:01.716Z,60.51
2018-08-23T18:19:06.415Z,59.77
2018-08-23T18:22:10.459Z,60.80
2018-08-23T18:25:14.559Z,60.11
2018-08-23T18:28:22.211Z,60.14
2018-08-23T18:31:26.175Z,60.44
2018-08-23T18:34:30.192Z,61.14
2018-08-23T18:37:34.220Z,60.58
2018-08-23T18:40:38.391Z,61.51
2018-08-23T18:43:42.371Z,61.50
2018-08-23T18:46:46.783Z,61.28
2018-08-23T18:49:50.814Z,61.77
2018-08-23T18:52:54.866Z,62.23
2018-08-23T18:55:58.866Z,61.57
2018-08-23T18:59:02.839Z,62.35
2018-08-23T19:02:06.899Z,61.61
2018-08-23T19:05:10.932Z,61.93
2018-08-23T19:08:15.126Z,62.20
2018-08-23T19:18:29.389Z,62.33
2018-08-23T19:21:33.660Z,62.52
2018-08-23T19:24:37.683Z,63.47
2018-08-23T19:27:41.691Z,63.03
2018-08-23T19:30:46.031Z,62.70
2018-08-23T19:33:50.099Z,63.17
2018-08-23T19:36:54.262Z,63.50
2018-08-23T19:39:58.308Z,62.95
2018-08-23T19:43:02.673Z,63.33
2018-08-23T19:46:12.555Z,63.09
2018-08-23T19:49:22.063Z,63.31
2018-08-23T19:52:26.223Z,63.87
2018-08-23T19:55:30.253Z,63.98
2018-08-23T19:58:34.265Z,64.26
2018-08-23T20:01:38.320Z,64.21
2018-08-23T20:04:43.046Z,63.63
2018-08-23T20:07:47.100Z,63.68
2018-08-23T20:10:51.144Z,63.69
2018-08-23T20:13:55.203Z,63.72
2018-08-23T20:16:59.526Z,64.19
2018-08-23T20:20:03.510Z,64.81
2018-08-23T20:23:07.603Z,64.87
2018-08-23T20:26:11.664Z,64.09
2018-08-23T20:29:15.663Z,64.03
2018-08-23T20:32:19.816Z,65.16
2018-08-23T20:35:23.999Z,65.10
2018-08-23T20:38:28.036Z,65.33
2018-08-23T20:41:32.043Z,64.97
2018-08-23T20:44:36.057Z,65.05
2018-08-23T20:47:40.125Z,65.70
2018-08-23T20:50:58.706Z,65.51
2018-08-23T20:54:02.756Z,65.00
2018-08-23T20:57:06.751Z,65.13
2018-08-23T21:00:10.770Z,65.64
2018-08-23T21:03:15.018Z,65.07
2018-08-23T21:06:19.393Z,65.39
2018-08-23T21:09:23.681Z,65.16
2018-08-23T21:12:27.707Z,65.66
2018-08-23T21:15:31.726Z,65.25
2018-08-23T21:18:35.755Z,65.32
2018-08-23T21:21:39.760Z,66.27
2018-08-23T21:24:44.006Z,65.16
2018-08-23T21:27:48.039Z,65.69
2018-08-23T21:34:33.849Z,65.45
2018-08-23T21:37:37.853Z,65.15
2018-08-23T21:40:42.091Z,64.90
2018-08-23T21:43:46.129Z,65.44
2018-08-23T21:46:53.963Z,65.81
2018-08-23T21:49:58.220Z,64.83
2018-08-23T21:53:02.326Z,64.73
2018-08-23T21:56:06.743Z,65.63
2018-08-23T21:59:10.855Z,65.20
2018-08-23T22:02:17.783Z,64.95
2018-08-23T22:05:21.818Z,65.08
2018-08-23T22:08:25.894Z,65.51
2018-08-23T22:11:30.025Z,65.02
2018-08-23T22:14:34.109Z,65.40
2018-08-23T22:17:38.405Z,64.97
2018-08-23T22:20:42.605Z,64.79
2018-08-23T22:23:46.954Z,65.52
2018-08-23T22:26:51.044Z,65.77
2018-08-23T22:29:55.203Z,65.64
2018-08-23T22:32:59.259Z,64.78
2018-08-23T22:36:03.526Z,65.13
2018-08-23T22:39:08.398Z,65.36
2018-08-23T22:42:12.422Z,65.38
2018-08-23T22:45:16.582Z,65.93
2018-08-23T22:48:20.658Z,64.91
2018-08-23T22:51:24.783Z,65.17
2018-08-23T22:54:28.810Z,65.15
2018-08-23T22:57:32.800Z,66.19
2018-08-23T23:00:42.566Z,66.36
2018-08-23T23:03:52.125Z,65.97
2018-08-23T23:06:57.463Z,66.26
2018-08-23T23:10:01.972Z,65.81
2018-08-23T23:13:05.958Z,66.50
2018-08-23T23:16:10.079Z,66.48
2018-08-23T23:19:14.430Z,65.66
2018-08-23T23:22:18.414Z,66.72
2018-08-23T23:25:22.455Z,66.09
2018-08-23T23:28:26.699Z,66.27
2018-08-23T23:31:30.706Z,66.74
2018-08-23T23:34:34.798Z,66.60
2018-08-23T23:37:38.841Z,66.45
2018-08-23T23:40:42.875Z,65.91
2018-08-23T23:43:46.947Z,66.90
2018-08-23T23:46:50.998Z,66.98
2018-08-23T23:49:55.311Z,66.37
2018-08-23T23:52:59.399Z,66.75
2018-08-23T23:56:05.506Z,66.93
2018-08-23T23:59:09.563Z,67.53
